RYR6UK LICJ-LEMD
Flight info
| Callsign | RYR6UK |
|---|---|
| Flight time | 2h 14m |
| Altitude | 37000 |
| Route | KAPIL DCT ADAMI DCT DOPEL DCT LUXUR DCT GENIO DCT XARON DCT OLMIR DCT NINES M134 VLC N733 PRADO |
| Aircraft | B738/M-SDE3FGILRWY/SB1 |
Departure
| Time | 2026-04-30 12:42 |
|---|---|
| Airport | Falcone–Borsellino Airport (LICJ) |
Arrival
| Time | 2026-04-30 14:56 |
|---|---|
| Airport | Adolfo Suárez Madrid–Barajas Airport (LEMD) |
| Time | Latitude | Longitude | Altitude | Speed | Heading |
|---|---|---|---|---|---|
| 2026-04-30 12:01 | 38.18369 | 13.10195 | 47 ft | 0 kts | 247° |
| 2026-04-30 12:33 | 38.18370 | 13.10198 | 52 ft | 2 kts | 247° |
| 2026-04-30 12:33 | 38.18379 | 13.10225 | 48 ft | 3 kts | 247° |
| 2026-04-30 12:34 | 38.18386 | 13.10247 | 50 ft | 3 kts | 237° |
| 2026-04-30 12:34 | 38.18401 | 13.10267 | 45 ft | 3 kts | 199° |
| 2026-04-30 12:34 | 38.18419 | 13.10269 | 48 ft | 2 kts | 157° |
| 2026-04-30 12:34 | 38.18407 | 13.10275 | 48 ft | 3 kts | 157° |
| 2026-04-30 12:35 | 38.18385 | 13.10287 | 52 ft | 3 kts | 157° |
| 2026-04-30 12:35 | 38.18364 | 13.10298 | 52 ft | 1 kts | 157° |
| 2026-04-30 12:37 | 38.18344 | 13.10309 | 52 ft | 8 kts | 157° |
| 2026-04-30 12:37 | 38.18273 | 13.10354 | 52 ft | 14 kts | 151° |
| 2026-04-30 12:38 | 38.18199 | 13.10325 | 52 ft | 13 kts | 246° |
| 2026-04-30 12:38 | 38.18156 | 13.10195 | 50 ft | 20 kts | 247° |
| 2026-04-30 12:38 | 38.18094 | 13.10010 | 51 ft | 24 kts | 246° |
| 2026-04-30 12:38 | 38.18032 | 13.09826 | 52 ft | 23 kts | 247° |
| 2026-04-30 12:39 | 38.17971 | 13.09645 | 52 ft | 22 kts | 247° |
| 2026-04-30 12:39 | 38.17912 | 13.09469 | 51 ft | 21 kts | 247° |
| 2026-04-30 12:39 | 38.17854 | 13.09297 | 50 ft | 21 kts | 247° |
| 2026-04-30 12:39 | 38.17798 | 13.09131 | 49 ft | 20 kts | 247° |
| 2026-04-30 12:40 | 38.17744 | 13.08971 | 52 ft | 19 kts | 242° |
| 2026-04-30 12:40 | 38.17676 | 13.08891 | 52 ft | 10 kts | 217° |
| 2026-04-30 12:40 | 38.17622 | 13.08839 | 52 ft | 10 kts | 217° |
| 2026-04-30 12:40 | 38.17568 | 13.08788 | 50 ft | 10 kts | 217° |
| 2026-04-30 12:41 | 38.17511 | 13.08747 | 52 ft | 9 kts | 189° |
| 2026-04-30 12:41 | 38.17472 | 13.08770 | 52 ft | 5 kts | 86° |
| 2026-04-30 12:41 | 38.17505 | 13.08869 | 50 ft | 34 kts | 66° |
| 2026-04-30 12:41 | 38.17695 | 13.09433 | 50 ft | 102 kts | 66° |
| 2026-04-30 12:42 | 38.18063 | 13.10485 | 60 ft | 156 kts | 63° |
| 2026-04-30 12:42 | 38.18509 | 13.11813 | 623 ft | 163 kts | 66° |
| 2026-04-30 12:42 | 38.18922 | 13.13116 | 1435 ft | 162 kts | 66° |
| 2026-04-30 12:42 | 38.19393 | 13.14497 | 1878 ft | 183 kts | 65° |
| 2026-04-30 12:43 | 38.19945 | 13.16067 | 2285 ft | 201 kts | 64° |
| 2026-04-30 12:43 | 38.20561 | 13.17755 | 2626 ft | 215 kts | 57° |
| 2026-04-30 12:43 | 38.21507 | 13.19248 | 3194 ft | 223 kts | 46° |
| 2026-04-30 12:43 | 38.22681 | 13.20620 | 3495 ft | 246 kts | 26° |
| 2026-04-30 12:44 | 38.24304 | 13.21475 | 4033 ft | 258 kts | 21° |
| 2026-04-30 12:44 | 38.26010 | 13.22343 | 4669 ft | 268 kts | 21° |
| 2026-04-30 12:44 | 38.27798 | 13.23056 | 5377 ft | 269 kts | 0° |
| 2026-04-30 12:44 | 38.29575 | 13.22529 | 6297 ft | 261 kts | 326° |
| 2026-04-30 12:45 | 38.30857 | 13.20896 | 7007 ft | 266 kts | 301° |
| 2026-04-30 12:45 | 38.31536 | 13.18728 | 7729 ft | 269 kts | 281° |
| 2026-04-30 12:45 | 38.31728 | 13.16356 | 8521 ft | 271 kts | 275° |
| 2026-04-30 12:45 | 38.31826 | 13.13948 | 9311 ft | 273 kts | 274° |
| 2026-04-30 12:46 | 38.31908 | 13.11512 | 10047 ft | 276 kts | 274° |
| 2026-04-30 12:46 | 38.31993 | 13.09016 | 10466 ft | 291 kts | 274° |
| 2026-04-30 12:46 | 38.32089 | 13.06336 | 10634 ft | 314 kts | 274° |
| 2026-04-30 12:46 | 38.32195 | 13.03511 | 10922 ft | 330 kts | 274° |
| 2026-04-30 12:47 | 38.32308 | 13.00563 | 11540 ft | 335 kts | 274° |
| 2026-04-30 12:47 | 38.32424 | 12.97600 | 12290 ft | 336 kts | 274° |
| 2026-04-30 12:47 | 38.32542 | 12.94625 | 13061 ft | 337 kts | 274° |
| 2026-04-30 12:47 | 38.32661 | 12.91624 | 13832 ft | 340 kts | 274° |
| 2026-04-30 12:48 | 38.32782 | 12.88603 | 14517 ft | 343 kts | 274° |
| 2026-04-30 12:48 | 38.32904 | 12.85577 | 15172 ft | 347 kts | 274° |
| 2026-04-30 12:48 | 38.33027 | 12.82490 | 15855 ft | 350 kts | 274° |
| 2026-04-30 12:48 | 38.33151 | 12.79370 | 16504 ft | 354 kts | 274° |
| 2026-04-30 12:49 | 38.33276 | 12.76208 | 17144 ft | 358 kts | 274° |
| 2026-04-30 12:49 | 38.33402 | 12.73014 | 17798 ft | 362 kts | 274° |
| 2026-04-30 12:49 | 38.33528 | 12.69795 | 18426 ft | 366 kts | 275° |
| 2026-04-30 12:49 | 38.33652 | 12.66580 | 18977 ft | 369 kts | 274° |
| 2026-04-30 12:50 | 38.33778 | 12.63303 | 19574 ft | 371 kts | 274° |
| 2026-04-30 12:50 | 38.33904 | 12.59998 | 20159 ft | 374 kts | 274° |
| 2026-04-30 12:50 | 38.34028 | 12.56715 | 20724 ft | 376 kts | 274° |
| 2026-04-30 12:50 | 38.34154 | 12.53369 | 21266 ft | 379 kts | 274° |
| 2026-04-30 12:51 | 38.34280 | 12.49996 | 21807 ft | 382 kts | 274° |
| 2026-04-30 12:51 | 38.34406 | 12.46600 | 22350 ft | 385 kts | 274° |
| 2026-04-30 12:51 | 38.34531 | 12.43178 | 22882 ft | 388 kts | 274° |
| 2026-04-30 12:51 | 38.34657 | 12.39732 | 23392 ft | 390 kts | 274° |
| 2026-04-30 12:52 | 38.34782 | 12.36277 | 23928 ft | 391 kts | 274° |
| 2026-04-30 12:52 | 38.34906 | 12.32804 | 24376 ft | 393 kts | 274° |
| 2026-04-30 12:52 | 38.35029 | 12.29361 | 24815 ft | 394 kts | 274° |
| 2026-04-30 12:52 | 38.35153 | 12.25847 | 25252 ft | 396 kts | 274° |
| 2026-04-30 12:53 | 38.35276 | 12.22331 | 25682 ft | 398 kts | 274° |
| 2026-04-30 12:53 | 38.35399 | 12.18792 | 26103 ft | 400 kts | 274° |
| 2026-04-30 12:53 | 38.35536 | 12.15251 | 26518 ft | 401 kts | 277° |
| 2026-04-30 12:53 | 38.35963 | 12.11779 | 26909 ft | 401 kts | 284° |
| 2026-04-30 12:54 | 38.36801 | 12.08376 | 27311 ft | 402 kts | 291° |
| 2026-04-30 12:54 | 38.37824 | 12.05045 | 27716 ft | 403 kts | 292° |
| 2026-04-30 12:54 | 38.38856 | 12.01697 | 28073 ft | 406 kts | 292° |
| 2026-04-30 12:54 | 38.39886 | 11.98338 | 28429 ft | 408 kts | 291° |
| 2026-04-30 12:55 | 38.40915 | 11.94962 | 28794 ft | 410 kts | 291° |
| 2026-04-30 12:55 | 38.41934 | 11.91598 | 29151 ft | 411 kts | 291° |
| 2026-04-30 12:55 | 38.42963 | 11.88182 | 29500 ft | 413 kts | 291° |
| 2026-04-30 12:55 | 38.43991 | 11.84759 | 29883 ft | 414 kts | 291° |
| 2026-04-30 12:56 | 38.45014 | 11.81341 | 30360 ft | 411 kts | 291° |
| 2026-04-30 12:56 | 38.46035 | 11.77928 | 30863 ft | 407 kts | 291° |
| 2026-04-30 12:56 | 38.47039 | 11.74565 | 31326 ft | 404 kts | 291° |
| 2026-04-30 12:56 | 38.48022 | 11.71266 | 31704 ft | 403 kts | 291° |
| 2026-04-30 12:57 | 38.49019 | 11.67919 | 32079 ft | 402 kts | 291° |
| 2026-04-30 12:57 | 38.50011 | 11.64586 | 32432 ft | 401 kts | 291° |
| 2026-04-30 12:57 | 38.51002 | 11.61253 | 32804 ft | 400 kts | 291° |
| 2026-04-30 12:57 | 38.51977 | 11.57969 | 33215 ft | 397 kts | 291° |
| 2026-04-30 12:58 | 38.52954 | 11.54672 | 33623 ft | 395 kts | 291° |
| 2026-04-30 12:58 | 38.53929 | 11.51381 | 33991 ft | 394 kts | 291° |
| 2026-04-30 12:58 | 38.54898 | 11.48103 | 34307 ft | 393 kts | 291° |
| 2026-04-30 12:58 | 38.55864 | 11.44833 | 34588 ft | 393 kts | 291° |
| 2026-04-30 12:59 | 38.56813 | 11.41616 | 34914 ft | 391 kts | 291° |
| 2026-04-30 12:59 | 38.57770 | 11.38369 | 35248 ft | 389 kts | 291° |
| 2026-04-30 12:59 | 38.58724 | 11.35128 | 35506 ft | 389 kts | 291° |
| 2026-04-30 12:59 | 38.59677 | 11.31887 | 35739 ft | 389 kts | 291° |
| 2026-04-30 13:00 | 38.60629 | 11.28647 | 35968 ft | 389 kts | 291° |
| 2026-04-30 13:00 | 38.61581 | 11.25401 | 36203 ft | 389 kts | 291° |
| 2026-04-30 13:00 | 38.62533 | 11.22151 | 36408 ft | 390 kts | 291° |
| 2026-04-30 13:00 | 38.63472 | 11.18939 | 36625 ft | 390 kts | 291° |
| 2026-04-30 13:01 | 38.64421 | 11.15694 | 36878 ft | 389 kts | 291° |
| 2026-04-30 13:01 | 38.65368 | 11.12447 | 37080 ft | 390 kts | 291° |
| 2026-04-30 13:01 | 38.67278 | 11.05895 | 37065 ft | 394 kts | 291° |
| 2026-04-30 13:02 | 38.69173 | 10.99344 | 37060 ft | 389 kts | 289° |
| 2026-04-30 13:02 | 38.70113 | 10.92597 | 37068 ft | 389 kts | 276° |
| 2026-04-30 13:03 | 38.69815 | 10.85656 | 37077 ft | 391 kts | 268° |
| 2026-04-30 13:03 | 38.69245 | 10.78730 | 37072 ft | 390 kts | 268° |
| 2026-04-30 13:04 | 38.68681 | 10.71834 | 37084 ft | 390 kts | 268° |
| 2026-04-30 13:04 | 38.68125 | 10.64907 | 37073 ft | 391 kts | 268° |
| 2026-04-30 13:05 | 38.67664 | 10.59143 | 37074 ft | 392 kts | 268° |
| 2026-04-30 13:06 | 38.66828 | 10.48737 | 37108 ft | 395 kts | 267° |
| 2026-04-30 13:06 | 38.66545 | 10.45231 | 37256 ft | 397 kts | 267° |
| 2026-04-30 13:06 | 38.66260 | 10.41727 | 37548 ft | 395 kts | 267° |
| 2026-04-30 13:06 | 38.65974 | 10.38239 | 37831 ft | 392 kts | 267° |
| 2026-04-30 13:07 | 38.65690 | 10.34766 | 38046 ft | 392 kts | 267° |
| 2026-04-30 13:07 | 38.65115 | 10.27779 | 38077 ft | 396 kts | 267° |
| 2026-04-30 13:08 | 38.64538 | 10.20824 | 38068 ft | 393 kts | 267° |
| 2026-04-30 13:08 | 38.63958 | 10.13896 | 38070 ft | 390 kts | 267° |
| 2026-04-30 13:09 | 38.63383 | 10.07058 | 38071 ft | 387 kts | 267° |
| 2026-04-30 13:09 | 38.62803 | 10.00208 | 38074 ft | 386 kts | 267° |
| 2026-04-30 13:10 | 38.62219 | 9.93359 | 38075 ft | 386 kts | 266° |
| 2026-04-30 13:10 | 38.61634 | 9.86555 | 38080 ft | 387 kts | 266° |
| 2026-04-30 13:11 | 38.61041 | 9.79691 | 38074 ft | 389 kts | 266° |
| 2026-04-30 13:11 | 38.60439 | 9.72778 | 38077 ft | 391 kts | 266° |
| 2026-04-30 13:12 | 38.59833 | 9.65872 | 38074 ft | 393 kts | 266° |
| 2026-04-30 13:12 | 38.59217 | 9.58890 | 38072 ft | 395 kts | 266° |
| 2026-04-30 13:13 | 38.58279 | 9.48368 | 38071 ft | 397 kts | 266° |
| 2026-04-30 13:14 | 38.57334 | 9.37872 | 38071 ft | 397 kts | 266° |
| 2026-04-30 13:14 | 38.56381 | 9.27393 | 38066 ft | 396 kts | 266° |
| 2026-04-30 13:15 | 38.55417 | 9.16899 | 38068 ft | 395 kts | 266° |
| 2026-04-30 13:16 | 38.54772 | 9.09926 | 38067 ft | 394 kts | 266° |
| 2026-04-30 13:16 | 38.54125 | 9.02986 | 38048 ft | 393 kts | 265° |
| 2026-04-30 13:17 | 38.53156 | 8.92659 | 38069 ft | 392 kts | 265° |
| 2026-04-30 13:18 | 38.52479 | 8.82264 | 38077 ft | 390 kts | 269° |
| 2026-04-30 13:18 | 38.52153 | 8.71911 | 38071 ft | 391 kts | 269° |
| 2026-04-30 13:19 | 38.51919 | 8.64951 | 38070 ft | 392 kts | 269° |
| 2026-04-30 13:19 | 38.51670 | 8.57976 | 38068 ft | 393 kts | 269° |
| 2026-04-30 13:20 | 38.51415 | 8.51036 | 38070 ft | 394 kts | 269° |
| 2026-04-30 13:20 | 38.51151 | 8.44034 | 38069 ft | 395 kts | 269° |
| 2026-04-30 13:21 | 38.50883 | 8.37022 | 38069 ft | 395 kts | 269° |
| 2026-04-30 13:22 | 38.50475 | 8.26532 | 38069 ft | 396 kts | 269° |
| 2026-04-30 13:22 | 38.50054 | 8.15982 | 38068 ft | 396 kts | 269° |
| 2026-04-30 13:23 | 38.49626 | 8.05474 | 38070 ft | 396 kts | 268° |
| 2026-04-30 13:24 | 38.49038 | 7.91406 | 38066 ft | 395 kts | 268° |
| 2026-04-30 13:25 | 38.48436 | 7.77415 | 38068 ft | 395 kts | 268° |
| 2026-04-30 13:26 | 38.47661 | 7.59938 | 38067 ft | 394 kts | 268° |
| 2026-04-30 13:28 | 38.46863 | 7.42522 | 38066 ft | 394 kts | 268° |
| 2026-04-30 13:28 | 38.46370 | 7.32032 | 38068 ft | 395 kts | 268° |
| 2026-04-30 13:29 | 38.45697 | 7.18046 | 38066 ft | 396 kts | 268° |
| 2026-04-30 13:31 | 38.44831 | 7.00533 | 38061 ft | 396 kts | 268° |
| 2026-04-30 13:32 | 38.43937 | 6.82976 | 38061 ft | 397 kts | 267° |
| 2026-04-30 13:33 | 38.43200 | 6.68879 | 38067 ft | 398 kts | 267° |
| 2026-04-30 13:34 | 38.42637 | 6.58318 | 38069 ft | 399 kts | 267° |
| 2026-04-30 13:35 | 38.41867 | 6.44161 | 38062 ft | 400 kts | 267° |
| 2026-04-30 13:36 | 38.41079 | 6.30011 | 38068 ft | 400 kts | 267° |
| 2026-04-30 13:36 | 38.40479 | 6.19418 | 38069 ft | 400 kts | 267° |
| 2026-04-30 13:37 | 38.39868 | 6.08809 | 38057 ft | 399 kts | 267° |
| 2026-04-30 13:38 | 38.39250 | 5.98242 | 38058 ft | 399 kts | 266° |
| 2026-04-30 13:39 | 38.38409 | 5.84127 | 38061 ft | 399 kts | 266° |
| 2026-04-30 13:40 | 38.37769 | 5.73572 | 38067 ft | 398 kts | 266° |
| 2026-04-30 13:40 | 38.37339 | 5.66563 | 38055 ft | 398 kts | 266° |
| 2026-04-30 13:41 | 38.36902 | 5.59519 | 38064 ft | 398 kts | 266° |
| 2026-04-30 13:41 | 38.36464 | 5.52513 | 38060 ft | 398 kts | 266° |
| 2026-04-30 13:42 | 38.36018 | 5.45459 | 38063 ft | 398 kts | 266° |
| 2026-04-30 13:42 | 38.35342 | 5.34881 | 38058 ft | 399 kts | 266° |
| 2026-04-30 13:43 | 38.34889 | 5.27879 | 38064 ft | 399 kts | 265° |
| 2026-04-30 13:43 | 38.34428 | 5.20828 | 38064 ft | 399 kts | 265° |
| 2026-04-30 13:44 | 38.33963 | 5.13772 | 38063 ft | 399 kts | 265° |
| 2026-04-30 13:44 | 38.33496 | 5.06755 | 38068 ft | 399 kts | 265° |
| 2026-04-30 13:45 | 38.32783 | 4.96153 | 38060 ft | 400 kts | 265° |
| 2026-04-30 13:46 | 38.32302 | 4.89089 | 38063 ft | 400 kts | 265° |
| 2026-04-30 13:46 | 38.31820 | 4.82065 | 38058 ft | 400 kts | 265° |
| 2026-04-30 13:47 | 38.31330 | 4.74994 | 38057 ft | 400 kts | 265° |
| 2026-04-30 13:47 | 38.30837 | 4.67935 | 38058 ft | 400 kts | 265° |
| 2026-04-30 13:48 | 38.30342 | 4.60912 | 38057 ft | 400 kts | 265° |
| 2026-04-30 13:48 | 38.29839 | 4.53839 | 38054 ft | 400 kts | 265° |
| 2026-04-30 13:49 | 38.29332 | 4.46760 | 38062 ft | 400 kts | 265° |
| 2026-04-30 13:49 | 38.28823 | 4.39729 | 38058 ft | 401 kts | 265° |
| 2026-04-30 13:50 | 38.28309 | 4.32670 | 38067 ft | 401 kts | 265° |
| 2026-04-30 13:50 | 38.27616 | 4.23259 | 38060 ft | 401 kts | 265° |
| 2026-04-30 13:51 | 38.27004 | 4.15034 | 38051 ft | 401 kts | 264° |
| 2026-04-30 13:51 | 38.26563 | 4.09150 | 38056 ft | 401 kts | 264° |
| 2026-04-30 13:52 | 38.26027 | 4.02051 | 38054 ft | 401 kts | 264° |
| 2026-04-30 13:52 | 38.25489 | 3.94989 | 38060 ft | 401 kts | 264° |
| 2026-04-30 13:53 | 38.24949 | 3.87951 | 38056 ft | 401 kts | 264° |
| 2026-04-30 13:53 | 38.24400 | 3.80859 | 38059 ft | 401 kts | 264° |
| 2026-04-30 13:54 | 38.23850 | 3.73808 | 38061 ft | 402 kts | 264° |
| 2026-04-30 13:54 | 38.23293 | 3.66724 | 38052 ft | 402 kts | 264° |
| 2026-04-30 13:55 | 38.22735 | 3.59676 | 38051 ft | 402 kts | 264° |
| 2026-04-30 13:55 | 38.22171 | 3.52595 | 38051 ft | 402 kts | 264° |
| 2026-04-30 13:56 | 38.21675 | 3.45552 | 38043 ft | 402 kts | 270° |
| 2026-04-30 13:56 | 38.22412 | 3.38495 | 38056 ft | 404 kts | 284° |
| 2026-04-30 13:57 | 38.24350 | 3.31741 | 38052 ft | 406 kts | 288° |
| 2026-04-30 13:57 | 38.26353 | 3.25064 | 38046 ft | 406 kts | 288° |
| 2026-04-30 13:58 | 38.29308 | 3.14989 | 38052 ft | 406 kts | 289° |
| 2026-04-30 13:59 | 38.31705 | 3.08451 | 38049 ft | 407 kts | 293° |
| 2026-04-30 13:59 | 38.34215 | 3.01968 | 38036 ft | 408 kts | 293° |
| 2026-04-30 14:00 | 38.36680 | 2.95504 | 38049 ft | 408 kts | 292° |
| 2026-04-30 14:00 | 38.40383 | 2.85704 | 38053 ft | 408 kts | 292° |
| 2026-04-30 14:01 | 38.42835 | 2.79201 | 38051 ft | 409 kts | 292° |
| 2026-04-30 14:01 | 38.45304 | 2.72645 | 38048 ft | 409 kts | 292° |
| 2026-04-30 14:02 | 38.47765 | 2.66092 | 38040 ft | 409 kts | 292° |
| 2026-04-30 14:02 | 38.50214 | 2.59557 | 38060 ft | 410 kts | 292° |
| 2026-04-30 14:03 | 38.52676 | 2.52975 | 38049 ft | 410 kts | 292° |
| 2026-04-30 14:03 | 38.55126 | 2.46413 | 38046 ft | 411 kts | 292° |
| 2026-04-30 14:04 | 38.57588 | 2.39807 | 38045 ft | 411 kts | 292° |
| 2026-04-30 14:04 | 38.60046 | 2.33195 | 38048 ft | 412 kts | 292° |
| 2026-04-30 14:05 | 38.62492 | 2.26602 | 38040 ft | 412 kts | 291° |
| 2026-04-30 14:05 | 38.64951 | 2.19961 | 38055 ft | 412 kts | 292° |
| 2026-04-30 14:06 | 38.68622 | 2.10009 | 38048 ft | 413 kts | 291° |
| 2026-04-30 14:07 | 38.72276 | 2.00061 | 38047 ft | 413 kts | 291° |
| 2026-04-30 14:08 | 38.75935 | 1.90067 | 38045 ft | 413 kts | 291° |
| 2026-04-30 14:08 | 38.79591 | 1.80048 | 38044 ft | 413 kts | 291° |
| 2026-04-30 14:09 | 38.82005 | 1.73413 | 38044 ft | 413 kts | 291° |
| 2026-04-30 14:10 | 38.85656 | 1.63353 | 38044 ft | 413 kts | 291° |
| 2026-04-30 14:10 | 38.88069 | 1.56684 | 38046 ft | 413 kts | 291° |
| 2026-04-30 14:11 | 38.90490 | 1.49980 | 38048 ft | 414 kts | 291° |
| 2026-04-30 14:11 | 38.92791 | 1.43210 | 38051 ft | 413 kts | 288° |
| 2026-04-30 14:12 | 38.94834 | 1.36360 | 38055 ft | 412 kts | 287° |
| 2026-04-30 14:12 | 38.96872 | 1.29451 | 38049 ft | 413 kts | 287° |
| 2026-04-30 14:13 | 38.98922 | 1.22572 | 38044 ft | 414 kts | 287° |
| 2026-04-30 14:13 | 39.00990 | 1.15662 | 38047 ft | 414 kts | 287° |
| 2026-04-30 14:14 | 39.03049 | 1.08776 | 38053 ft | 414 kts | 287° |
| 2026-04-30 14:14 | 39.05113 | 1.01851 | 38057 ft | 415 kts | 287° |
| 2026-04-30 14:15 | 39.07179 | 0.94900 | 38048 ft | 415 kts | 287° |
| 2026-04-30 14:15 | 39.09227 | 0.87991 | 38057 ft | 415 kts | 287° |
| 2026-04-30 14:16 | 39.11288 | 0.81024 | 38058 ft | 415 kts | 287° |
| 2026-04-30 14:16 | 39.13333 | 0.74094 | 38059 ft | 416 kts | 287° |
| 2026-04-30 14:17 | 39.15386 | 0.67113 | 38059 ft | 416 kts | 287° |
| 2026-04-30 14:17 | 39.17433 | 0.60135 | 38058 ft | 416 kts | 287° |
| 2026-04-30 14:18 | 39.19479 | 0.53148 | 38063 ft | 416 kts | 287° |
| 2026-04-30 14:18 | 39.22533 | 0.42680 | 38064 ft | 417 kts | 287° |
| 2026-04-30 14:19 | 39.25579 | 0.32197 | 38054 ft | 417 kts | 287° |
| 2026-04-30 14:20 | 39.27614 | 0.25171 | 38059 ft | 417 kts | 287° |
| 2026-04-30 14:20 | 39.30662 | 0.14614 | 38053 ft | 418 kts | 286° |
| 2026-04-30 14:21 | 39.32689 | 0.07571 | 38051 ft | 418 kts | 286° |
| 2026-04-30 14:22 | 39.35716 | -0.02983 | 38052 ft | 419 kts | 286° |
| 2026-04-30 14:22 | 39.38744 | -0.13593 | 38044 ft | 420 kts | 286° |
| 2026-04-30 14:23 | 39.42776 | -0.27790 | 38048 ft | 420 kts | 286° |
| 2026-04-30 14:24 | 39.45776 | -0.38402 | 38048 ft | 420 kts | 286° |
| 2026-04-30 14:25 | 39.50253 | -0.52425 | 38064 ft | 425 kts | 295° |
| 2026-04-30 14:26 | 39.54762 | -0.62381 | 37539 ft | 429 kts | 296° |
| 2026-04-30 14:26 | 39.57697 | -0.68949 | 36779 ft | 420 kts | 295° |
| 2026-04-30 14:27 | 39.59141 | -0.72216 | 36409 ft | 415 kts | 295° |
| 2026-04-30 14:27 | 39.60570 | -0.75462 | 36023 ft | 412 kts | 295° |
| 2026-04-30 14:27 | 39.61983 | -0.78678 | 35685 ft | 408 kts | 295° |
| 2026-04-30 14:28 | 39.64772 | -0.85039 | 34915 ft | 403 kts | 295° |
| 2026-04-30 14:28 | 39.66135 | -0.88150 | 34541 ft | 400 kts | 295° |
| 2026-04-30 14:28 | 39.67511 | -0.91294 | 34171 ft | 398 kts | 295° |
| 2026-04-30 14:28 | 39.68879 | -0.94422 | 33765 ft | 396 kts | 295° |
| 2026-04-30 14:29 | 39.71564 | -1.00569 | 32969 ft | 391 kts | 295° |
| 2026-04-30 14:29 | 39.73786 | -1.05680 | 32326 ft | 387 kts | 295° |
| 2026-04-30 14:30 | 39.78151 | -1.15699 | 31144 ft | 378 kts | 295° |
| 2026-04-30 14:31 | 39.80733 | -1.21619 | 30477 ft | 373 kts | 295° |
| 2026-04-30 14:31 | 39.83276 | -1.27481 | 29713 ft | 369 kts | 295° |
| 2026-04-30 14:31 | 39.84527 | -1.30373 | 29352 ft | 365 kts | 295° |
| 2026-04-30 14:32 | 39.86997 | -1.36090 | 28625 ft | 359 kts | 295° |
| 2026-04-30 14:32 | 39.88217 | -1.38915 | 28283 ft | 355 kts | 295° |
| 2026-04-30 14:32 | 39.89407 | -1.41675 | 27941 ft | 353 kts | 295° |
| 2026-04-30 14:33 | 39.90606 | -1.44458 | 27603 ft | 350 kts | 295° |
| 2026-04-30 14:33 | 39.92975 | -1.49960 | 26924 ft | 345 kts | 295° |
| 2026-04-30 14:33 | 39.94147 | -1.52687 | 26587 ft | 343 kts | 295° |
| 2026-04-30 14:34 | 39.95295 | -1.55358 | 26272 ft | 340 kts | 295° |
| 2026-04-30 14:34 | 39.96447 | -1.58044 | 25938 ft | 338 kts | 295° |
| 2026-04-30 14:34 | 39.97595 | -1.60723 | 25608 ft | 337 kts | 295° |
| 2026-04-30 14:34 | 39.98737 | -1.63389 | 25268 ft | 335 kts | 295° |
| 2026-04-30 14:35 | 40.00623 | -1.67798 | 24718 ft | 333 kts | 296° |
| 2026-04-30 14:35 | 40.02113 | -1.71287 | 24303 ft | 331 kts | 295° |
| 2026-04-30 14:35 | 40.03237 | -1.73920 | 23968 ft | 330 kts | 295° |
| 2026-04-30 14:36 | 40.04357 | -1.76547 | 23639 ft | 329 kts | 295° |
| 2026-04-30 14:36 | 40.05471 | -1.79162 | 23252 ft | 329 kts | 295° |
| 2026-04-30 14:36 | 40.06581 | -1.81771 | 22887 ft | 327 kts | 296° |
| 2026-04-30 14:36 | 40.07670 | -1.84332 | 22549 ft | 325 kts | 296° |
| 2026-04-30 14:37 | 40.08764 | -1.86904 | 22237 ft | 322 kts | 296° |
| 2026-04-30 14:37 | 40.09852 | -1.89467 | 21902 ft | 320 kts | 296° |
| 2026-04-30 14:37 | 40.10918 | -1.91981 | 21588 ft | 318 kts | 296° |
| 2026-04-30 14:37 | 40.11989 | -1.94506 | 21262 ft | 317 kts | 296° |
| 2026-04-30 14:38 | 40.13054 | -1.97019 | 20939 ft | 315 kts | 296° |
| 2026-04-30 14:38 | 40.14113 | -1.99522 | 20631 ft | 314 kts | 296° |
| 2026-04-30 14:38 | 40.15170 | -2.02022 | 20308 ft | 313 kts | 296° |
| 2026-04-30 14:38 | 40.16224 | -2.04510 | 19971 ft | 312 kts | 296° |
| 2026-04-30 14:39 | 40.16922 | -2.06159 | 19766 ft | 311 kts | 296° |
| 2026-04-30 14:39 | 40.18311 | -2.09443 | 19349 ft | 310 kts | 296° |
| 2026-04-30 14:39 | 40.19355 | -2.11916 | 19029 ft | 310 kts | 296° |
| 2026-04-30 14:40 | 40.21087 | -2.16020 | 18497 ft | 309 kts | 296° |
| 2026-04-30 14:40 | 40.22124 | -2.18481 | 18166 ft | 308 kts | 296° |
| 2026-04-30 14:40 | 40.23156 | -2.20930 | 17820 ft | 306 kts | 296° |
| 2026-04-30 14:40 | 40.24184 | -2.23372 | 17509 ft | 305 kts | 296° |
| 2026-04-30 14:41 | 40.25195 | -2.25776 | 17119 ft | 306 kts | 296° |
| 2026-04-30 14:41 | 40.26081 | -2.28275 | 16780 ft | 301 kts | 282° |
| 2026-04-30 14:41 | 40.26281 | -2.30972 | 16481 ft | 297 kts | 269° |
| 2026-04-30 14:41 | 40.26267 | -2.33674 | 16168 ft | 296 kts | 268° |
| 2026-04-30 14:42 | 40.26233 | -2.36362 | 15854 ft | 295 kts | 268° |
| 2026-04-30 14:42 | 40.26201 | -2.39044 | 15550 ft | 293 kts | 268° |
| 2026-04-30 14:42 | 40.26174 | -2.41718 | 15242 ft | 293 kts | 268° |
| 2026-04-30 14:42 | 40.26153 | -2.44351 | 14944 ft | 292 kts | 268° |
| 2026-04-30 14:43 | 40.26134 | -2.47003 | 14643 ft | 291 kts | 268° |
| 2026-04-30 14:43 | 40.26117 | -2.49637 | 14487 ft | 285 kts | 268° |
| 2026-04-30 14:43 | 40.26101 | -2.52221 | 14348 ft | 283 kts | 268° |
| 2026-04-30 14:43 | 40.26085 | -2.54813 | 14232 ft | 287 kts | 268° |
| 2026-04-30 14:44 | 40.26067 | -2.57452 | 14111 ft | 292 kts | 268° |
| 2026-04-30 14:44 | 40.26049 | -2.60101 | 13965 ft | 294 kts | 268° |
| 2026-04-30 14:44 | 40.26038 | -2.62807 | 13656 ft | 298 kts | 268° |
| 2026-04-30 14:44 | 40.26032 | -2.65519 | 13349 ft | 297 kts | 269° |
| 2026-04-30 14:45 | 40.26026 | -2.68181 | 13059 ft | 294 kts | 269° |
| 2026-04-30 14:45 | 40.26019 | -2.70847 | 12769 ft | 291 kts | 268° |
| 2026-04-30 14:45 | 40.26012 | -2.73494 | 12484 ft | 289 kts | 268° |
| 2026-04-30 14:45 | 40.26004 | -2.76109 | 12210 ft | 286 kts | 268° |
| 2026-04-30 14:46 | 40.25995 | -2.78700 | 11933 ft | 283 kts | 268° |
| 2026-04-30 14:46 | 40.25986 | -2.81273 | 11666 ft | 281 kts | 268° |
| 2026-04-30 14:46 | 40.25976 | -2.83800 | 11400 ft | 280 kts | 268° |
| 2026-04-30 14:46 | 40.25965 | -2.86348 | 11129 ft | 279 kts | 268° |
| 2026-04-30 14:47 | 40.25954 | -2.88889 | 10862 ft | 278 kts | 268° |
| 2026-04-30 14:47 | 40.25942 | -2.91420 | 10590 ft | 277 kts | 268° |
| 2026-04-30 14:47 | 40.25930 | -2.93942 | 10324 ft | 276 kts | 268° |
| 2026-04-30 14:47 | 40.25917 | -2.96455 | 10065 ft | 276 kts | 268° |
| 2026-04-30 14:48 | 40.25904 | -2.98938 | 9775 ft | 275 kts | 268° |
| 2026-04-30 14:48 | 40.25890 | -3.01438 | 9485 ft | 274 kts | 268° |
| 2026-04-30 14:48 | 40.25877 | -3.03928 | 9210 ft | 272 kts | 268° |
| 2026-04-30 14:48 | 40.25863 | -3.06403 | 8947 ft | 271 kts | 268° |
| 2026-04-30 14:49 | 40.25847 | -3.08866 | 8682 ft | 269 kts | 268° |
| 2026-04-30 14:49 | 40.25832 | -3.11316 | 8420 ft | 269 kts | 268° |
| 2026-04-30 14:49 | 40.25825 | -3.13731 | 8160 ft | 268 kts | 271° |
| 2026-04-30 14:49 | 40.26065 | -3.16152 | 7914 ft | 268 kts | 278° |
| 2026-04-30 14:50 | 40.26762 | -3.20976 | 7386 ft | 270 kts | 279° |
| 2026-04-30 14:50 | 40.27093 | -3.23367 | 7125 ft | 270 kts | 279° |
| 2026-04-30 14:51 | 40.27747 | -3.28229 | 6610 ft | 270 kts | 278° |
| 2026-04-30 14:51 | 40.28067 | -3.30656 | 6341 ft | 268 kts | 278° |
| 2026-04-30 14:51 | 40.28997 | -3.35191 | 5812 ft | 253 kts | 290° |
| 2026-04-30 14:52 | 40.29638 | -3.37296 | 5549 ft | 245 kts | 290° |
| 2026-04-30 14:52 | 40.31666 | -3.40645 | 5128 ft | 238 kts | 323° |
| 2026-04-30 14:52 | 40.33027 | -3.41902 | 4870 ft | 240 kts | 323° |
| 2026-04-30 14:53 | 40.35611 | -3.44448 | 4416 ft | 221 kts | 321° |
| 2026-04-30 14:53 | 40.36790 | -3.45656 | 4197 ft | 208 kts | 321° |
| 2026-04-30 14:54 | 40.38937 | -3.47850 | 3806 ft | 188 kts | 321° |
| 2026-04-30 14:54 | 40.40953 | -3.49910 | 3329 ft | 181 kts | 320° |
| 2026-04-30 14:55 | 40.42808 | -3.51804 | 2861 ft | 163 kts | 322° |
| 2026-04-30 14:55 | 40.43690 | -3.52704 | 2643 ft | 159 kts | 321° |
| 2026-04-30 14:55 | 40.45487 | -3.54537 | 2164 ft | 164 kts | 321° |
| 2026-04-30 14:56 | 40.47195 | -3.56288 | 1981 ft | 123 kts | 322° |
| 2026-04-30 14:56 | 40.47982 | -3.57088 | 2001 ft | 31 kts | 322° |
| 2026-04-30 14:57 | 40.48111 | -3.57261 | 2005 ft | 26 kts | 303° |
| 2026-04-30 14:57 | 40.48102 | -3.57475 | 2000 ft | 14 kts | 148° |
| 2026-04-30 14:58 | 40.47879 | -3.57248 | 2002 ft | 27 kts | 143° |
| 2026-04-30 14:58 | 40.47715 | -3.57085 | 1997 ft | 30 kts | 143° |
| 2026-04-30 14:58 | 40.47389 | -3.56752 | 1987 ft | 28 kts | 142° |
| 2026-04-30 14:59 | 40.47090 | -3.56474 | 1979 ft | 25 kts | 161° |
| 2026-04-30 15:00 | 40.46803 | -3.56586 | 1975 ft | 13 kts | 274° |
| 2026-04-30 15:00 | 40.46702 | -3.56700 | 1972 ft | 12 kts | 182° |
| 2026-04-30 15:01 | 40.46606 | -3.56758 | 1972 ft | 7 kts | 269° |
| 2026-04-30 15:01 | 40.46607 | -3.56813 | 1974 ft | 3 kts | 270° |
| 2026-04-30 15:01 | 40.46607 | -3.56827 | 1973 ft | 0 kts | 270° |